sensor_id;sensor_type;location;lat;lon;timestamp;pressure;altitude;pressure_sealevel;temperature;humidity
4590;BME280;2307;48.448;9.216;2023-04-03T00:00:18;96008.78;;;3.58;100.00
4590;BME280;2307;48.448;9.216;2023-04-03T00:02:44;96006.34;;;3.34;100.00
4590;BME280;2307;48.448;9.216;2023-04-03T00:05:11;96008.03;;;3.49;100.00
4590;BME280;2307;48.448;9.216;2023-04-03T00:07:37;96003.94;;;3.55;100.00
4590;BME280;2307;48.448;9.216;2023-04-03T00:10:04;96004.56;;;3.57;100.00
4590;BME280;2307;48.448;9.216;2023-04-03T00:12:32;96008.09;;;3.64;100.00
4590;BME280;2307;48.448;9.216;2023-04-03T00:14:58;96003.38;;;3.59;100.00
4590;BME280;2307;48.448;9.216;2023-04-03T00:17:24;95999.81;;;3.75;100.00
4590;BME280;2307;48.448;9.216;2023-04-03T00:19:51;96000.97;;;3.58;100.00
4590;BME280;2307;48.448;9.216;2023-04-03T00:22:17;96004.81;;;3.62;100.00
4590;BME280;2307;48.448;9.216;2023-04-03T00:24:44;95996.00;;;3.63;100.00
4590;BME280;2307;48.448;9.216;2023-04-03T00:27:10;95995.47;;;3.67;100.00
4590;BME280;2307;48.448;9.216;2023-04-03T00:29:38;95998.19;;;3.74;100.00
4590;BME280;2307;48.448;9.216;2023-04-03T00:32:04;96002.97;;;3.70;100.00
4590;BME280;2307;48.448;9.216;2023-04-03T00:34:31;96007.38;;;3.70;100.00
4590;BME280;2307;48.448;9.216;2023-04-03T00:36:57;96009.28;;;3.76;100.00
4590;BME280;2307;48.448;9.216;2023-04-03T00:39:24;96009.63;;;3.73;100.00
4590;BME280;2307;48.448;9.216;2023-04-03T00:41:50;96008.66;;;3.74;100.00
4590;BME280;2307;48.448;9.216;2023-04-03T00:44:21;96010.19;;;3.83;100.00
4590;BME280;2307;48.448;9.216;2023-04-03T00:46:49;96012.09;;;3.89;100.00
4590;BME280;2307;48.448;9.216;2023-04-03T00:49:15;96007.84;;;3.88;100.00
4590;BME280;2307;48.448;9.216;2023-04-03T00:51:41;96012.00;;;3.97;100.00
4590;BME280;2307;48.448;9.216;2023-04-03T00:54:08;96007.69;;;4.04;100.00
4590;BME280;2307;48.448;9.216;2023-04-03T00:56:35;96006.50;;;3.92;100.00
4590;BME280;2307;48.448;9.216;2023-04-03T00:59:03;96008.41;;;3.98;100.00
4590;BME280;2307;48.448;9.216;2023-04-03T01:01:31;96008.03;;;4.01;100.00
4590;BME280;2307;48.448;9.216;2023-04-03T01:03:59;96007.34;;;4.07;100.00
4590;BME280;2307;48.448;9.216;2023-04-03T01:06:28;95998.06;;;4.05;100.00
4590;BME280;2307;48.448;9.216;2023-04-03T01:08:56;96002.63;;;3.88;100.00
4590;BME280;2307;48.448;9.216;2023-04-03T01:11:22;96005.69;;;3.77;100.00
4590;BME280;2307;48.448;9.216;2023-04-03T01:13:49;95999.59;;;3.62;100.00
4590;BME280;2307;48.448;9.216;2023-04-03T01:16:15;96000.84;;;3.51;100.00
4590;BME280;2307;48.448;9.216;2023-04-03T01:18:41;95998.25;;;3.66;100.00
4590;BME280;2307;48.448;9.216;2023-04-03T01:21:23;95999.69;;;3.68;100.00
4590;BME280;2307;48.448;9.216;2023-04-03T01:24:03;95996.97;;;3.62;100.00
4590;BME280;2307;48.448;9.216;2023-04-03T01:26:32;96003.22;;;3.61;100.00
4590;BME280;2307;48.448;9.216;2023-04-03T01:28:59;96002.91;;;3.56;100.00
4590;BME280;2307;48.448;9.216;2023-04-03T01:31:27;95996.09;;;3.55;100.00
4590;BME280;2307;48.448;9.216;2023-04-03T01:33:56;95999.47;;;3.41;100.00
4590;BME280;2307;48.448;9.216;2023-04-03T01:36:23;96002.06;;;3.41;100.00
4590;BME280;2307;48.448;9.216;2023-04-03T01:38:50;95999.41;;;3.49;100.00
4590;BME280;2307;48.448;9.216;2023-04-03T01:41:17;96004.31;;;3.44;100.00
4590;BME280;2307;48.448;9.216;2023-04-03T01:43:43;96004.91;;;3.54;100.00
4590;BME280;2307;48.448;9.216;2023-04-03T01:46:09;96000.38;;;3.48;100.00
4590;BME280;2307;48.448;9.216;2023-04-03T01:48:36;96006.88;;;3.52;100.00
4590;BME280;2307;48.448;9.216;2023-04-03T01:51:04;96007.63;;;3.38;100.00
4590;BME280;2307;48.448;9.216;2023-04-03T01:53:30;96007.25;;;3.49;100.00
4590;BME280;2307;48.448;9.216;2023-04-03T01:55:56;96008.03;;;3.49;100.00
4590;BME280;2307;48.448;9.216;2023-04-03T01:58:23;96000.03;;;3.51;100.00
4590;BME280;2307;48.448;9.216;2023-04-03T02:00:50;95997.13;;;3.46;100.00
4590;BME280;2307;48.448;9.216;2023-04-03T02:03:16;96003.75;;;3.34;100.00
4590;BME280;2307;48.448;9.216;2023-04-03T02:05:43;96001.44;;;3.39;100.00
4590;BME280;2307;48.448;9.216;2023-04-03T02:08:11;96000.91;;;3.43;100.00
4590;BME280;2307;48.448;9.216;2023-04-03T02:10:38;95998.88;;;3.53;100.00
4590;BME280;2307;48.448;9.216;2023-04-03T02:13:04;96005.38;;;3.57;100.00
4590;BME280;2307;48.448;9.216;2023-04-03T02:15:31;96001.84;;;3.65;100.00
4590;BME280;2307;48.448;9.216;2023-04-03T02:17:57;96003.97;;;3.47;100.00
4590;BME280;2307;48.448;9.216;2023-04-03T02:20:23;96003.28;;;3.53;100.00
4590;BME280;2307;48.448;9.216;2023-04-03T02:22:50;96005.19;;;3.59;100.00
4590;BME280;2307;48.448;9.216;2023-04-03T02:25:17;96001.09;;;3.42;100.00
4590;BME280;2307;48.448;9.216;2023-04-03T02:27:45;96006.09;;;3.29;100.00
4590;BME280;2307;48.448;9.216;2023-04-03T02:30:11;96008.09;;;3.18;100.00
4590;BME280;2307;48.448;9.216;2023-04-03T02:32:39;96002.59;;;3.36;100.00
4590;BME280;2307;48.448;9.216;2023-04-03T02:35:06;96004.69;;;3.41;100.00
4590;BME280;2307;48.448;9.216;2023-04-03T02:37:32;96000.03;;;3.51;100.00
4590;BME280;2307;48.448;9.216;2023-04-03T02:39:59;96002.03;;;3.49;100.00
4590;BME280;2307;48.448;9.216;2023-04-03T02:42:26;95998.50;;;3.56;100.00
4590;BME280;2307;48.448;9.216;2023-04-03T02:44:53;96001.75;;;3.58;100.00
4590;BME280;2307;48.448;9.216;2023-04-03T02:47:20;96007.44;;;3.62;100.00
4590;BME280;2307;48.448;9.216;2023-04-03T02:49:46;96006.19;;;3.58;100.00
4590;BME280;2307;48.448;9.216;2023-04-03T02:52:13;96006.97;;;3.58;100.00
4590;BME280;2307;48.448;9.216;2023-04-03T02:54:39;96007.25;;;3.49;100.00
4590;BME280;2307;48.448;9.216;2023-04-03T02:57:05;96008.50;;;3.53;100.00
4590;BME280;2307;48.448;9.216;2023-04-03T02:59:35;96009.25;;;3.61;100.00
4590;BME280;2307;48.448;9.216;2023-04-03T03:02:01;96016.03;;;3.70;100.00
4590;BME280;2307;48.448;9.216;2023-04-03T03:04:28;96009.34;;;3.68;100.00
4590;BME280;2307;48.448;9.216;2023-04-03T03:06:54;96012.97;;;3.67;100.00
4590;BME280;2307;48.448;9.216;2023-04-03T03:09:21;96014.28;;;3.63;100.00
4590;BME280;2307;48.448;9.216;2023-04-03T03:11:47;96009.69;;;3.65;100.00
4590;BME280;2307;48.448;9.216;2023-04-03T03:14:13;96011.56;;;3.56;100.00
4590;BME280;2307;48.448;9.216;2023-04-03T03:16:41;96004.19;;;3.60;100.00
4590;BME280;2307;48.448;9.216;2023-04-03T03:19:07;96008.72;;;3.66;100.00
4590;BME280;2307;48.448;9.216;2023-04-03T03:21:34;96000.97;;;3.58;100.00
4590;BME280;2307;48.448;9.216;2023-04-03T03:24:00;95999.41;;;3.49;100.00
4590;BME280;2307;48.448;9.216;2023-04-03T03:26:27;96003.16;;;3.46;100.00
4590;BME280;2307;48.448;9.216;2023-04-03T03:28:53;96007.56;;;3.46;100.00
4590;BME280;2307;48.448;9.216;2023-04-03T03:31:19;96006.94;;;3.44;100.00
4590;BME280;2307;48.448;9.216;2023-04-03T03:33:47;95998.41;;;3.50;100.00
4590;BME280;2307;48.448;9.216;2023-04-03T03:36:13;96002.53;;;3.44;100.00
4590;BME280;2307;48.448;9.216;2023-04-03T03:38:40;96003.88;;;3.40;100.00
4590;BME280;2307;48.448;9.216;2023-04-03T03:41:06;96000.50;;;3.32;100.00
4590;BME280;2307;48.448;9.216;2023-04-03T03:43:33;96006.81;;;3.37;100.00
4590;BME280;2307;48.448;9.216;2023-04-03T03:45:59;95997.59;;;3.49;100.00
4590;BME280;2307;48.448;9.216;2023-04-03T03:48:26;95992.72;;;3.46;100.00
4590;BME280;2307;48.448;9.216;2023-04-03T03:50:53;95999.56;;;3.47;100.00
4590;BME280;2307;48.448;9.216;2023-04-03T03:53:20;95999.00;;;3.37;100.00
4590;BME280;2307;48.448;9.216;2023-04-03T03:55:46;95999.09;;;3.44;100.00
4590;BME280;2307;48.448;9.216;2023-04-03T03:58:12;95996.16;;;3.47;100.00
4590;BME280;2307;48.448;9.216;2023-04-03T04:00:39;96001.22;;;3.26;100.00
4590;BME280;2307;48.448;9.216;2023-04-03T04:03:05;95999.59;;;3.25;100.00
4590;BME280;2307;48.448;9.216;2023-04-03T04:05:31;96000.41;;;3.25;100.00
4590;BME280;2307;48.448;9.216;2023-04-03T04:07:59;96001.56;;;3.22;100.00
4590;BME280;2307;48.448;9.216;2023-04-03T04:10:26;96002.50;;;3.07;100.00
4590;BME280;2307;48.448;9.216;2023-04-03T04:12:52;96008.91;;;2.96;100.00
4590;BME280;2307;48.448;9.216;2023-04-03T04:15:18;96004.53;;;2.89;100.00
4590;BME280;2307;48.448;9.216;2023-04-03T04:17:46;96009.53;;;2.98;100.00
4590;BME280;2307;48.448;9.216;2023-04-03T04:20:12;96008.41;;;3.01;100.00
4590;BME280;2307;48.448;9.216;2023-04-03T04:22:39;96011.00;;;3.01;100.00
4590;BME280;2307;48.448;9.216;2023-04-03T04:25:07;96010.09;;;2.86;100.00
4590;BME280;2307;48.448;9.216;2023-04-03T04:27:34;96007.38;;;2.79;100.00
4590;BME280;2307;48.448;9.216;2023-04-03T04:30:00;96000.88;;;2.75;100.00
4590;BME280;2307;48.448;9.216;2023-04-03T04:32:27;96005.84;;;2.93;100.00
4590;BME280;2307;48.448;9.216;2023-04-03T04:34:54;96006.38;;;2.80;100.00
4590;BME280;2307;48.448;9.216;2023-04-03T04:37:20;96000.22;;;2.73;100.00
4590;BME280;2307;48.448;9.216;2023-04-03T04:39:47;96006.38;;;2.88;100.00
4590;BME280;2307;48.448;9.216;2023-04-03T04:42:14;96009.47;;;2.84;100.00
4590;BME280;2307;48.448;9.216;2023-04-03T04:44:41;96015.78;;;2.89;100.00
4590;BME280;2307;48.448;9.216;2023-04-03T04:47:08;96018.13;;;2.84;100.00
4590;BME280;2307;48.448;9.216;2023-04-03T04:49:34;96015.50;;;2.84;100.00
4590;BME280;2307;48.448;9.216;2023-04-03T04:52:01;96016.06;;;2.72;100.00
4590;BME280;2307;48.448;9.216;2023-04-03T04:54:29;96017.69;;;2.73;100.00
4590;BME280;2307;48.448;9.216;2023-04-03T04:56:55;96012.00;;;2.69;100.00
4590;BME280;2307;48.448;9.216;2023-04-03T04:59:23;96006.53;;;2.87;100.00
4590;BME280;2307;48.448;9.216;2023-04-03T05:01:49;96023.69;;;2.81;100.00
4590;BME280;2307;48.448;9.216;2023-04-03T05:04:16;96013.38;;;2.88;100.00
4590;BME280;2307;48.448;9.216;2023-04-03T05:06:42;96017.09;;;2.93;100.00
4590;BME280;2307;48.448;9.216;2023-04-03T05:09:09;96018.03;;;3.00;100.00
4590;BME280;2307;48.448;9.216;2023-04-03T05:11:35;96026.53;;;2.94;100.00
4590;BME280;2307;48.448;9.216;2023-04-03T05:14:02;96026.19;;;2.97;100.00
4590;BME280;2307;48.448;9.216;2023-04-03T05:16:31;96029.97;;;2.95;100.00
4590;BME280;2307;48.448;9.216;2023-04-03T05:18:58;96024.28;;;2.91;100.00
4590;BME280;2307;48.448;9.216;2023-04-03T05:21:24;96029.25;;;2.78;99.82
4590;BME280;2307;48.448;9.216;2023-04-03T05:23:52;96035.13;;;2.72;100.00
4590;BME280;2307;48.448;9.216;2023-04-03T05:26:19;96038.84;;;2.78;100.00
4590;BME280;2307;48.448;9.216;2023-04-03T05:28:46;96035.75;;;2.82;100.00
4590;BME280;2307;48.448;9.216;2023-04-03T05:31:12;96035.00;;;2.96;98.35
4590;BME280;2307;48.448;9.216;2023-04-03T05:33:40;96036.97;;;2.94;100.00
4590;BME280;2307;48.448;9.216;2023-04-03T05:36:07;96044.81;;;2.94;97.84
4590;BME280;2307;48.448;9.216;2023-04-03T05:38:33;96037.81;;;2.87;94.64
4590;BME280;2307;48.448;9.216;2023-04-03T05:40:59;96045.22;;;2.75;93.01
4590;BME280;2307;48.448;9.216;2023-04-03T05:43:26;96032.59;;;2.87;89.97
4590;BME280;2307;48.448;9.216;2023-04-03T05:45:52;96044.19;;;2.84;89.91
4590;BME280;2307;48.448;9.216;2023-04-03T05:48:18;96040.78;;;2.84;90.18
4590;BME280;2307;48.448;9.216;2023-04-03T05:50:46;96047.16;;;2.81;85.33
4590;BME280;2307;48.448;9.216;2023-04-03T05:53:15;96056.09;;;2.87;88.35
4590;BME280;2307;48.448;9.216;2023-04-03T05:55:42;96054.56;;;3.00;88.70
4590;BME280;2307;48.448;9.216;2023-04-03T05:58:09;96054.91;;;2.97;83.77
4590;BME280;2307;48.448;9.216;2023-04-03T06:00:35;96054.56;;;3.00;85.01
4590;BME280;2307;48.448;9.216;2023-04-03T06:03:01;96053.59;;;2.93;85.33
4590;BME280;2307;48.448;9.216;2023-04-03T06:05:28;96056.50;;;2.98;86.37
4590;BME280;2307;48.448;9.216;2023-04-03T06:07:55;96056.84;;;2.95;85.34
4590;BME280;2307;48.448;9.216;2023-04-03T06:10:22;96063.94;;;3.09;85.73
4590;BME280;2307;48.448;9.216;2023-04-03T06:12:49;96066.81;;;2.92;83.53
4590;BME280;2307;48.448;9.216;2023-04-03T06:15:16;96058.81;;;2.93;83.62
4590;BME280;2307;48.448;9.216;2023-04-03T06:17:42;96062.19;;;3.02;83.72
4590;BME280;2307;48.448;9.216;2023-04-03T06:20:09;96061.22;;;3.03;83.05
4590;BME280;2307;48.448;9.216;2023-04-03T06:22:36;96068.88;;;3.04;81.63
4590;BME280;2307;48.448;9.216;2023-04-03T06:25:04;96060.31;;;3.18;78.86
4590;BME280;2307;48.448;9.216;2023-04-03T06:27:31;96064.56;;;3.19;79.40
4590;BME280;2307;48.448;9.216;2023-04-03T06:29:58;96061.00;;;3.12;81.59
4590;BME280;2307;48.448;9.216;2023-04-03T06:32:24;96071.22;;;3.22;81.90
4590;BME280;2307;48.448;9.216;2023-04-03T06:34:51;96063.88;;;3.26;82.12
4590;BME280;2307;48.448;9.216;2023-04-03T06:37:19;96059.22;;;3.36;81.94
4590;BME280;2307;48.448;9.216;2023-04-03T06:39:46;96063.75;;;3.42;77.39
4590;BME280;2307;48.448;9.216;2023-04-03T06:42:13;96065.94;;;3.30;76.80
4590;BME280;2307;48.448;9.216;2023-04-03T06:44:40;96070.06;;;3.25;75.90
4590;BME280;2307;48.448;9.216;2023-04-03T06:47:06;96075.19;;;3.41;79.60
4590;BME280;2307;48.448;9.216;2023-04-03T06:49:33;96069.91;;;3.49;78.57
4590;BME280;2307;48.448;9.216;2023-04-03T06:52:02;96064.53;;;3.65;81.65
4590;BME280;2307;48.448;9.216;2023-04-03T06:54:28;96059.44;;;3.71;79.92
4590;BME280;2307;48.448;9.216;2023-04-03T06:56:54;96063.28;;;3.61;80.58
4590;BME280;2307;48.448;9.216;2023-04-03T06:59:22;96061.19;;;3.56;82.41
4590;BME280;2307;48.448;9.216;2023-04-03T07:01:49;96062.47;;;3.38;95.34
4590;BME280;2307;48.448;9.216;2023-04-03T07:04:15;96058.63;;;3.26;99.49
4590;BME280;2307;48.448;9.216;2023-04-03T07:06:41;96058.53;;;3.42;100.00
4590;BME280;2307;48.448;9.216;2023-04-03T07:09:08;96064.16;;;3.53;100.00
4590;BME280;2307;48.448;9.216;2023-04-03T07:11:35;96053.66;;;3.61;100.00
4590;BME280;2307;48.448;9.216;2023-04-03T07:14:02;96063.28;;;3.61;100.00
4590;BME280;2307;48.448;9.216;2023-04-03T07:16:30;96072.31;;;3.73;100.00
4590;BME280;2307;48.448;9.216;2023-04-03T07:18:57;96070.34;;;3.75;100.00
4590;BME280;2307;48.448;9.216;2023-04-03T07:21:23;96074.09;;;3.58;100.00
4590;BME280;2307;48.448;9.216;2023-04-03T07:23:49;96070.69;;;3.49;100.00
4590;BME280;2307;48.448;9.216;2023-04-03T07:26:16;96072.84;;;3.68;100.00
4590;BME280;2307;48.448;9.216;2023-04-03T07:28:42;96076.47;;;3.67;100.00
4590;BME280;2307;48.448;9.216;2023-04-03T07:31:10;96076.84;;;3.79;100.00
4590;BME280;2307;48.448;9.216;2023-04-03T07:33:40;96073.25;;;3.80;100.00
4590;BME280;2307;48.448;9.216;2023-04-03T07:36:06;96081.25;;;3.79;100.00
4590;BME280;2307;48.448;9.216;2023-04-03T07:38:33;96085.06;;;3.91;100.00
4590;BME280;2307;48.448;9.216;2023-04-03T07:41:00;96085.19;;;3.74;100.00
4590;BME280;2307;48.448;9.216;2023-04-03T07:43:26;96086.00;;;3.75;100.00
4590;BME280;2307;48.448;9.216;2023-04-03T07:45:53;96088.69;;;3.90;100.00
4590;BME280;2307;48.448;9.216;2023-04-03T07:48:20;96092.16;;;4.05;100.00
4590;BME280;2307;48.448;9.216;2023-04-03T07:50:48;96091.44;;;4.11;100.00
4590;BME280;2307;48.448;9.216;2023-04-03T07:53:15;96080.16;;;4.10;100.00
4590;BME280;2307;48.448;9.216;2023-04-03T07:55:42;96086.72;;;4.06;100.00
4590;BME280;2307;48.448;9.216;2023-04-03T07:58:09;96092.25;;;4.11;100.00
4590;BME280;2307;48.448;9.216;2023-04-03T08:00:36;96090.38;;;4.20;99.12
4590;BME280;2307;48.448;9.216;2023-04-03T08:03:02;96086.56;;;4.22;100.00
4590;BME280;2307;48.448;9.216;2023-04-03T08:05:29;96092.81;;;4.21;99.67
4590;BME280;2307;48.448;9.216;2023-04-03T08:07:57;96096.06;;;4.38;99.46
4590;BME280;2307;48.448;9.216;2023-04-03T08:10:23;96091.88;;;4.14;99.48
4590;BME280;2307;48.448;9.216;2023-04-03T08:12:49;96098.56;;;4.17;97.59
4590;BME280;2307;48.448;9.216;2023-04-03T08:15:16;96093.94;;;4.19;99.25
4590;BME280;2307;48.448;9.216;2023-04-03T08:17:43;96100.09;;;4.11;100.00
4590;BME280;2307;48.448;9.216;2023-04-03T08:20:09;96099.72;;;4.14;100.00
4590;BME280;2307;48.448;9.216;2023-04-03T08:22:36;96102.28;;;4.37;100.00
4590;BME280;2307;48.448;9.216;2023-04-03T08:25:04;96104.72;;;4.39;97.89
4590;BME280;2307;48.448;9.216;2023-04-03T08:27:30;96106.53;;;4.53;96.76
4590;BME280;2307;48.448;9.216;2023-04-03T08:29:57;96109.06;;;4.61;93.23
4590;BME280;2307;48.448;9.216;2023-04-03T08:32:23;96107.16;;;4.55;93.94
4590;BME280;2307;48.448;9.216;2023-04-03T08:34:50;96105.56;;;4.68;94.68
4590;BME280;2307;48.448;9.216;2023-04-03T08:37:16;96104.19;;;4.58;95.56
4590;BME280;2307;48.448;9.216;2023-04-03T08:39:44;96099.84;;;4.36;95.79
4590;BME280;2307;48.448;9.216;2023-04-03T08:42:14;96105.63;;;4.46;95.59
4590;BME280;2307;48.448;9.216;2023-04-03T08:44:44;96103.63;;;4.48;96.23
4590;BME280;2307;48.448;9.216;2023-04-03T08:47:15;96099.47;;;4.39;96.70
4590;BME280;2307;48.448;9.216;2023-04-03T08:49:44;96112.03;;;4.58;95.19
4590;BME280;2307;48.448;9.216;2023-04-03T08:52:13;96111.06;;;4.59;95.82
4590;BME280;2307;48.448;9.216;2023-04-03T08:54:41;96113.66;;;4.59;92.72
4590;BME280;2307;48.448;9.216;2023-04-03T08:57:13;96119.78;;;4.51;96.22
4590;BME280;2307;48.448;9.216;2023-04-03T08:59:40;96115.38;;;4.52;98.09
4590;BME280;2307;48.448;9.216;2023-04-03T09:02:13;96116.28;;;4.59;99.39
4590;BME280;2307;48.448;9.216;2023-04-03T09:04:46;96118.25;;;4.57;96.68
4590;BME280;2307;48.448;9.216;2023-04-03T09:07:13;96119.97;;;4.50;95.84
4590;BME280;2307;48.448;9.216;2023-04-03T09:09:46;96118.09;;;4.58;96.31
4590;BME280;2307;48.448;9.216;2023-04-03T09:12:17;96116.00;;;4.54;94.83
4590;BME280;2307;48.448;9.216;2023-04-03T09:14:46;96122.84;;;4.40;98.63
4590;BME280;2307;48.448;9.216;2023-04-03T09:17:26;96126.28;;;4.70;96.36
4590;BME280;2307;48.448;9.216;2023-04-03T09:19:57;96124.78;;;4.75;93.05
4590;BME280;2307;48.448;9.216;2023-04-03T09:22:25;96125.13;;;4.87;92.64
4590;BME280;2307;48.448;9.216;2023-04-03T09:24:54;96127.56;;;5.03;92.15
4590;BME280;2307;48.448;9.216;2023-04-03T09:27:23;96127.28;;;4.98;94.00
4590;BME280;2307;48.448;9.216;2023-04-03T09:29:52;96126.50;;;5.33;91.96
4590;BME280;2307;48.448;9.216;2023-04-03T09:32:20;96129.41;;;5.39;89.64
4590;BME280;2307;48.448;9.216;2023-04-03T09:34:48;96127.03;;;5.44;90.53
4590;BME280;2307;48.448;9.216;2023-04-03T09:37:32;96119.41;;;5.49;89.23
4590;BME280;2307;48.448;9.216;2023-04-03T09:40:00;96115.56;;;5.45;88.45
4590;BME280;2307;48.448;9.216;2023-04-03T09:42:28;96116.78;;;5.49;90.28
4590;BME280;2307;48.448;9.216;2023-04-03T09:44:56;96115.56;;;5.45;90.05
4590;BME280;2307;48.448;9.216;2023-04-03T09:47:24;96122.16;;;5.62;88.72
4590;BME280;2307;48.448;9.216;2023-04-03T09:49:52;96118.19;;;5.66;87.68
4590;BME280;2307;48.448;9.216;2023-04-03T09:52:35;96118.91;;;5.39;87.55
4590;BME280;2307;48.448;9.216;2023-04-03T09:55:06;96128.00;;;5.07;89.51
4590;BME280;2307;48.448;9.216;2023-04-03T09:57:34;96124.47;;;5.00;94.03
4590;BME280;2307;48.448;9.216;2023-04-03T10:00:01;96120.84;;;5.15;93.87
4590;BME280;2307;48.448;9.216;2023-04-03T10:02:34;96115.06;;;5.20;93.56
4590;BME280;2307;48.448;9.216;2023-04-03T10:05:02;96121.91;;;5.21;90.75
4590;BME280;2307;48.448;9.216;2023-04-03T10:07:30;96123.50;;;5.36;91.68
4590;BME280;2307;48.448;9.216;2023-04-03T10:09:56;96117.88;;;5.54;93.10
4590;BME280;2307;48.448;9.216;2023-04-03T10:12:23;96128.91;;;5.71;89.63
4590;BME280;2307;48.448;9.216;2023-04-03T10:14:56;96117.19;;;5.67;90.65
4590;BME280;2307;48.448;9.216;2023-04-03T10:17:23;96116.13;;;5.82;84.36
4590;BME280;2307;48.448;9.216;2023-04-03T10:19:53;96111.00;;;5.89;87.50
4590;BME280;2307;48.448;9.216;2023-04-03T10:22:24;96116.75;;;5.84;86.10
4590;BME280;2307;48.448;9.216;2023-04-03T10:25:01;96118.72;;;5.97;84.79
4590;BME280;2307;48.448;9.216;2023-04-03T10:27:32;96115.66;;;5.94;82.83
4590;BME280;2307;48.448;9.216;2023-04-03T10:30:07;96111.53;;;6.06;80.65
4590;BME280;2307;48.448;9.216;2023-04-03T10:32:42;96112.81;;;6.16;80.06
4590;BME280;2307;48.448;9.216;2023-04-03T10:35:14;96115.44;;;6.16;80.13
4590;BME280;2307;48.448;9.216;2023-04-03T10:37:47;96112.59;;;5.90;81.76
4590;BME280;2307;48.448;9.216;2023-04-03T10:40:21;96106.06;;;5.65;80.23
4590;BME280;2307;48.448;9.216;2023-04-03T10:42:50;96114.94;;;5.85;81.57
4590;BME280;2307;48.448;9.216;2023-04-03T10:45:23;96104.81;;;5.40;81.18
4590;BME280;2307;48.448;9.216;2023-04-03T10:47:54;96104.56;;;5.34;80.57
4590;BME280;2307;48.448;9.216;2023-04-03T10:50:27;96108.44;;;5.39;79.15
4590;BME280;2307;48.448;9.216;2023-04-03T10:52:57;96103.59;;;5.21;82.67
4590;BME280;2307;48.448;9.216;2023-04-03T10:55:24;96109.47;;;5.23;83.19
4590;BME280;2307;48.448;9.216;2023-04-03T10:57:57;96110.09;;;5.25;82.39
4590;BME280;2307;48.448;9.216;2023-04-03T11:00:26;96117.69;;;5.20;83.23
4590;BME280;2307;48.448;9.216;2023-04-03T11:02:55;96106.03;;;5.22;81.11
4590;BME280;2307;48.448;9.216;2023-04-03T11:05:26;96105.19;;;5.36;84.30
4590;BME280;2307;48.448;9.216;2023-04-03T11:07:55;96100.97;;;5.57;83.96
4590;BME280;2307;48.448;9.216;2023-04-03T11:10:24;96099.25;;;5.49;78.08
4590;BME280;2307;48.448;9.216;2023-04-03T11:12:52;96107.56;;;5.53;78.89
4590;BME280;2307;48.448;9.216;2023-04-03T11:15:22;96106.59;;;5.54;76.74
4590;BME280;2307;48.448;9.216;2023-04-03T11:17:51;96104.06;;;5.46;76.99
4590;BME280;2307;48.448;9.216;2023-04-03T11:20:21;96101.94;;;5.56;75.80
4590;BME280;2307;48.448;9.216;2023-04-03T11:22:53;96103.59;;;5.78;76.95
4590;BME280;2307;48.448;9.216;2023-04-03T11:25:24;96105.16;;;5.72;75.05
4590;BME280;2307;48.448;9.216;2023-04-03T11:27:52;96100.09;;;5.71;71.58
4590;BME280;2307;48.448;9.216;2023-04-03T11:30:22;96088.91;;;5.62;74.07
4590;BME280;2307;48.448;9.216;2023-04-03T11:35:35;96096.69;;;5.34;74.63
4590;BME280;2307;48.448;9.216;2023-04-03T11:38:02;96094.97;;;5.42;75.70
4590;BME280;2307;48.448;9.216;2023-04-03T11:40:31;96097.97;;;5.39;76.87
4590;BME280;2307;48.448;9.216;2023-04-03T11:43:03;96093.16;;;5.42;77.63
4590;BME280;2307;48.448;9.216;2023-04-03T11:45:35;96094.09;;;5.34;76.31
4590;BME280;2307;48.448;9.216;2023-04-03T11:48:03;96092.13;;;5.22;77.92
4590;BME280;2307;48.448;9.216;2023-04-03T11:50:30;96099.41;;;5.26;80.80
4590;BME280;2307;48.448;9.216;2023-04-03T11:52:59;96093.47;;;5.32;80.65
4590;BME280;2307;48.448;9.216;2023-04-03T11:58:14;96095.28;;;5.53;74.00
4590;BME280;2307;48.448;9.216;2023-04-03T12:00:48;96089.59;;;5.50;72.76
4590;BME280;2307;48.448;9.216;2023-04-03T12:08:49;96085.50;;;6.32;71.27
4590;BME280;2307;48.448;9.216;2023-04-03T12:11:21;96080.09;;;6.33;68.93
4590;BME280;2307;48.448;9.216;2023-04-03T12:14:03;96073.72;;;6.49;65.79
4590;BME280;2307;48.448;9.216;2023-04-03T12:16:30;96069.13;;;6.58;68.26
4590;BME280;2307;48.448;9.216;2023-04-03T12:18:59;96069.34;;;6.63;63.69
4590;BME280;2307;48.448;9.216;2023-04-03T12:24:27;96073.97;;;5.99;64.07
4590;BME280;2307;48.448;9.216;2023-04-03T12:27:07;96065.66;;;5.95;66.61
4590;BME280;2307;48.448;9.216;2023-04-03T12:29:36;96079.28;;;6.05;65.59
4590;BME280;2307;48.448;9.216;2023-04-03T12:32:08;96076.88;;;6.10;64.99
4590;BME280;2307;48.448;9.216;2023-04-03T12:34:42;96083.38;;;5.72;67.47
4590;BME280;2307;48.448;9.216;2023-04-03T12:37:17;96078.75;;;5.53;69.17
4590;BME280;2307;48.448;9.216;2023-04-03T12:39:56;96073.19;;;5.62;68.67
4590;BME280;2307;48.448;9.216;2023-04-03T12:42:34;96072.56;;;5.81;69.67
4590;BME280;2307;48.448;9.216;2023-04-03T12:45:09;96075.41;;;5.80;66.78
4590;BME280;2307;48.448;9.216;2023-04-03T12:47:40;96075.63;;;5.43;66.89
4590;BME280;2307;48.448;9.216;2023-04-03T12:50:16;96069.38;;;5.44;66.72
4590;BME280;2307;48.448;9.216;2023-04-03T12:52:45;96070.13;;;5.59;67.18
4590;BME280;2307;48.448;9.216;2023-04-03T12:55:15;96069.97;;;5.60;67.03
4590;BME280;2307;48.448;9.216;2023-04-03T12:57:42;96066.81;;;5.71;67.37
4590;BME280;2307;48.448;9.216;2023-04-03T13:00:22;96069.44;;;5.86;68.05
4590;BME280;2307;48.448;9.216;2023-04-03T13:02:53;96063.81;;;5.89;68.14
4590;BME280;2307;48.448;9.216;2023-04-03T13:05:20;96057.66;;;5.82;66.03
4590;BME280;2307;48.448;9.216;2023-04-03T13:07:48;96066.44;;;5.89;67.32
4590;BME280;2307;48.448;9.216;2023-04-03T13:10:17;96063.88;;;5.81;65.95
4590;BME280;2307;48.448;9.216;2023-04-03T13:12:48;96064.47;;;5.76;66.21
4590;BME280;2307;48.448;9.216;2023-04-03T13:15:16;96058.28;;;5.63;67.35
4590;BME280;2307;48.448;9.216;2023-04-03T13:17:43;96063.28;;;5.58;67.23
4590;BME280;2307;48.448;9.216;2023-04-03T13:20:10;96064.38;;;5.49;66.38
4590;BME280;2307;48.448;9.216;2023-04-03T13:22:38;96071.16;;;5.58;64.45
4590;BME280;2307;48.448;9.216;2023-04-03T13:25:09;96073.44;;;5.46;65.64
4590;BME280;2307;48.448;9.216;2023-04-03T13:27:38;96071.53;;;5.55;66.23
4590;BME280;2307;48.448;9.216;2023-04-03T13:30:17;96062.28;;;5.59;67.42
4590;BME280;2307;48.448;9.216;2023-04-03T13:32:45;96057.59;;;5.75;65.38
4590;BME280;2307;48.448;9.216;2023-04-03T13:37:58;96061.53;;;5.65;64.51
4590;BME280;2307;48.448;9.216;2023-04-03T13:40:25;96063.97;;;5.66;63.10
4590;BME280;2307;48.448;9.216;2023-04-03T13:43:00;96063.41;;;5.71;65.55
4590;BME280;2307;48.448;9.216;2023-04-03T13:45:27;96067.91;;;5.56;64.80
4590;BME280;2307;48.448;9.216;2023-04-03T13:48:06;96071.41;;;5.42;65.09